sensor_id;sensor_type;location;lat;lon;timestamp;pressure;altitude;pressure_sealevel;temperature;humidity
37450;BME280;23309;52.582;13.406;2022-09-09T00:02:21;100521.00;;;24.45;48.91
37450;BME280;23309;52.582;13.406;2022-09-09T00:04:58;100534.72;;;24.56;49.17
37450;BME280;23309;52.582;13.406;2022-09-09T00:07:35;100531.75;;;24.58;49.04
37450;BME280;23309;52.582;13.406;2022-09-09T00:10:17;100528.19;;;24.57;48.90
37450;BME280;23309;52.582;13.406;2022-09-09T00:12:57;100525.09;;;24.54;49.04
37450;BME280;23309;52.582;13.406;2022-09-09T00:15:31;100513.75;;;24.39;48.94
37450;BME280;23309;52.582;13.406;2022-09-09T00:18:11;100513.25;;;24.42;48.51
37450;BME280;23309;52.582;13.406;2022-09-09T00:20:45;100529.91;;;24.40;48.77
37450;BME280;23309;52.582;13.406;2022-09-09T00:23:21;100511.09;;;24.32;49.22
37450;BME280;23309;52.582;13.406;2022-09-09T00:26:00;100512.16;;;24.31;48.82
37450;BME280;23309;52.582;13.406;2022-09-09T00:28:39;100515.63;;;24.38;49.08
37450;BME280;23309;52.582;13.406;2022-09-09T00:31:13;100510.31;;;24.25;49.00
37450;BME280;23309;52.582;13.406;2022-09-09T00:33:40;100509.34;;;24.20;49.60
37450;BME280;23309;52.582;13.406;2022-09-09T00:36:13;100499.13;;;24.15;49.21
37450;BME280;23309;52.582;13.406;2022-09-09T00:38:44;100520.19;;;24.26;49.00
37450;BME280;23309;52.582;13.406;2022-09-09T00:41:18;100514.13;;;24.24;49.34
37450;BME280;23309;52.582;13.406;2022-09-09T00:43:57;100518.06;;;24.28;49.27
37450;BME280;23309;52.582;13.406;2022-09-09T00:46:51;100476.69;;;24.13;49.15
37450;BME280;23309;52.582;13.406;2022-09-09T00:49:31;100506.38;;;24.21;49.32
37450;BME280;23309;52.582;13.406;2022-09-09T00:52:12;100499.34;;;24.14;49.08
37450;BME280;23309;52.582;13.406;2022-09-09T00:54:50;100503.44;;;24.23;49.10
37450;BME280;23309;52.582;13.406;2022-09-09T00:57:28;100493.75;;;24.09;49.48
37450;BME280;23309;52.582;13.406;2022-09-09T01:00:22;100512.53;;;24.17;48.89
37450;BME280;23309;52.582;13.406;2022-09-09T01:02:59;100510.34;;;24.07;49.38
37450;BME280;23309;52.582;13.406;2022-09-09T01:05:35;100503.53;;;23.98;49.66
37450;BME280;23309;52.582;13.406;2022-09-09T01:08:11;100521.25;;;24.07;49.39
37450;BME280;23309;52.582;13.406;2022-09-09T01:10:47;100505.19;;;23.99;49.86
37450;BME280;23309;52.582;13.406;2022-09-09T01:13:20;100498.97;;;23.92;49.81
37450;BME280;23309;52.582;13.406;2022-09-09T01:15:52;100524.69;;;24.03;50.15
37450;BME280;23309;52.582;13.406;2022-09-09T01:18:23;100497.91;;;23.93;49.98
37450;BME280;23309;52.582;13.406;2022-09-09T01:21:02;100497.72;;;23.88;49.67
37450;BME280;23309;52.582;13.406;2022-09-09T01:23:53;100524.28;;;23.99;49.77
37450;BME280;23309;52.582;13.406;2022-09-09T01:26:32;100526.63;;;23.96;49.77
37450;BME280;23309;52.582;13.406;2022-09-09T01:29:00;100512.88;;;23.84;50.20
37450;BME280;23309;52.582;13.406;2022-09-09T01:31:30;100500.97;;;23.79;49.95
37450;BME280;23309;52.582;13.406;2022-09-09T01:33:57;100525.19;;;23.93;50.32
37450;BME280;23309;52.582;13.406;2022-09-09T01:36:31;100499.41;;;23.89;49.83
37450;BME280;23309;52.582;13.406;2022-09-09T01:39:01;100511.59;;;23.87;49.98
37450;BME280;23309;52.582;13.406;2022-09-09T01:41:31;100517.22;;;23.92;50.17
37450;BME280;23309;52.582;13.406;2022-09-09T01:43:57;100519.38;;;23.90;50.19
37450;BME280;23309;52.582;13.406;2022-09-09T01:46:24;100527.34;;;23.91;49.80
37450;BME280;23309;52.582;13.406;2022-09-09T01:48:51;100505.63;;;23.78;49.96
37450;BME280;23309;52.582;13.406;2022-09-09T01:51:19;100527.38;;;23.85;50.04
37450;BME280;23309;52.582;13.406;2022-09-09T01:53:45;100521.03;;;23.91;49.89
37450;BME280;23309;52.582;13.406;2022-09-09T01:56:25;100512.84;;;23.91;49.67
37450;BME280;23309;52.582;13.406;2022-09-09T01:59:11;100519.22;;;24.03;49.18
37450;BME280;23309;52.582;13.406;2022-09-09T02:02:01;100521.63;;;23.93;49.48
37450;BME280;23309;52.582;13.406;2022-09-09T02:04:38;100523.34;;;23.87;49.44
37450;BME280;23309;52.582;13.406;2022-09-09T02:07:19;100526.03;;;23.94;49.63
37450;BME280;23309;52.582;13.406;2022-09-09T02:09:54;100492.25;;;23.70;49.45
37450;BME280;23309;52.582;13.406;2022-09-09T02:12:25;100499.38;;;23.71;49.40
37450;BME280;23309;52.582;13.406;2022-09-09T02:15:07;100524.97;;;23.95;49.47
37450;BME280;23309;52.582;13.406;2022-09-09T02:17:37;100505.22;;;23.75;49.04
37450;BME280;23309;52.582;13.406;2022-09-09T02:20:09;100523.19;;;23.82;49.24
37450;BME280;23309;52.582;13.406;2022-09-09T02:22:40;100539.31;;;23.84;49.18
37450;BME280;23309;52.582;13.406;2022-09-09T02:25:12;100530.31;;;23.83;49.18
37450;BME280;23309;52.582;13.406;2022-09-09T02:27:44;100541.22;;;23.83;49.27
37450;BME280;23309;52.582;13.406;2022-09-09T02:30:15;100546.06;;;23.81;49.10
37450;BME280;23309;52.582;13.406;2022-09-09T02:32:43;100517.25;;;23.67;49.11
37450;BME280;23309;52.582;13.406;2022-09-09T02:35:15;100519.09;;;23.73;49.31
37450;BME280;23309;52.582;13.406;2022-09-09T02:37:44;100531.81;;;23.79;49.29
37450;BME280;23309;52.582;13.406;2022-09-09T02:40:12;100531.44;;;23.76;48.97
37450;BME280;23309;52.582;13.406;2022-09-09T02:42:43;100529.75;;;23.75;48.88
37450;BME280;23309;52.582;13.406;2022-09-09T02:45:15;100531.28;;;23.71;49.17
37450;BME280;23309;52.582;13.406;2022-09-09T02:47:50;100528.31;;;23.72;49.03
37450;BME280;23309;52.582;13.406;2022-09-09T02:50:22;100529.75;;;23.75;49.07
37450;BME280;23309;52.582;13.406;2022-09-09T02:53:01;100526.44;;;23.73;48.81
37450;BME280;23309;52.582;13.406;2022-09-09T02:55:41;100534.19;;;23.76;48.77
37450;BME280;23309;52.582;13.406;2022-09-09T02:58:10;100533.63;;;23.67;49.15
37450;BME280;23309;52.582;13.406;2022-09-09T03:00:41;100528.38;;;23.66;49.01
37450;BME280;23309;52.582;13.406;2022-09-09T03:03:08;100508.00;;;23.50;49.18
37450;BME280;23309;52.582;13.406;2022-09-09T03:05:36;100522.00;;;23.54;48.88
37450;BME280;23309;52.582;13.406;2022-09-09T03:08:05;100540.97;;;23.67;48.58
37450;BME280;23309;52.582;13.406;2022-09-09T03:10:32;100517.84;;;23.51;48.49
37450;BME280;23309;52.582;13.406;2022-09-09T03:12:58;100524.34;;;23.50;48.62
37450;BME280;23309;52.582;13.406;2022-09-09T03:15:25;100527.09;;;23.50;48.78
37450;BME280;23309;52.582;13.406;2022-09-09T03:17:54;100543.75;;;23.60;49.03
37450;BME280;23309;52.582;13.406;2022-09-09T03:20:20;100539.59;;;23.58;48.81
37450;BME280;23309;52.582;13.406;2022-09-09T03:22:46;100547.78;;;23.58;48.98
37450;BME280;23309;52.582;13.406;2022-09-09T03:25:14;100531.91;;;23.48;48.34
37450;BME280;23309;52.582;13.406;2022-09-09T03:27:40;100547.78;;;23.58;48.73
37450;BME280;23309;52.582;13.406;2022-09-09T03:30:08;100542.66;;;23.43;48.39
37450;BME280;23309;52.582;13.406;2022-09-09T03:32:34;100533.47;;;23.38;48.85
37450;BME280;23309;52.582;13.406;2022-09-09T03:35:04;100557.50;;;23.47;48.69
37450;BME280;23309;52.582;13.406;2022-09-09T03:37:30;100561.13;;;23.41;48.81
37450;BME280;23309;52.582;13.406;2022-09-09T03:39:56;100548.00;;;23.32;49.43
37450;BME280;23309;52.582;13.406;2022-09-09T03:42:23;100546.75;;;23.28;48.99
37450;BME280;23309;52.582;13.406;2022-09-09T03:44:49;100532.75;;;23.24;49.20
37450;BME280;23309;52.582;13.406;2022-09-09T03:47:16;100543.44;;;23.26;49.21
37450;BME280;23309;52.582;13.406;2022-09-09T03:49:42;100567.06;;;23.32;49.14
37450;BME280;23309;52.582;13.406;2022-09-09T03:52:11;100537.03;;;23.07;49.38
37450;BME280;23309;52.582;13.406;2022-09-09T03:54:38;100553.13;;;23.15;49.11
37450;BME280;23309;52.582;13.406;2022-09-09T03:57:04;100554.19;;;23.14;49.33
37450;BME280;23309;52.582;13.406;2022-09-09T03:59:32;100540.16;;;23.11;49.43
37450;BME280;23309;52.582;13.406;2022-09-09T04:01:58;100555.22;;;23.20;48.91
37450;BME280;23309;52.582;13.406;2022-09-09T04:04:24;100562.91;;;23.29;48.93
37450;BME280;23309;52.582;13.406;2022-09-09T04:06:52;100556.44;;;23.24;49.36
37450;BME280;23309;52.582;13.406;2022-09-09T04:09:20;100556.00;;;23.27;49.47
37450;BME280;23309;52.582;13.406;2022-09-09T04:11:46;100542.44;;;23.20;49.30
37450;BME280;23309;52.582;13.406;2022-09-09T04:14:13;100543.03;;;23.22;48.89
37450;BME280;23309;52.582;13.406;2022-09-09T04:16:39;100541.16;;;23.23;48.94
37450;BME280;23309;52.582;13.406;2022-09-09T04:19:06;100547.66;;;23.22;48.84
37450;BME280;23309;52.582;13.406;2022-09-09T04:21:32;100557.84;;;23.33;48.71
37450;BME280;23309;52.582;13.406;2022-09-09T04:23:59;100550.09;;;23.30;48.41
37450;BME280;23309;52.582;13.406;2022-09-09T04:26:28;100558.53;;;23.28;48.62
37450;BME280;23309;52.582;13.406;2022-09-09T04:28:54;100563.34;;;23.26;48.54
37450;BME280;23309;52.582;13.406;2022-09-09T04:31:23;100554.56;;;23.18;48.27
37450;BME280;23309;52.582;13.406;2022-09-09T04:33:49;100561.72;;;23.19;48.09
37450;BME280;23309;52.582;13.406;2022-09-09T04:36:16;100562.13;;;23.16;48.19
37450;BME280;23309;52.582;13.406;2022-09-09T04:38:42;100571.75;;;23.18;48.09
37450;BME280;23309;52.582;13.406;2022-09-09T04:41:08;100564.25;;;23.14;48.32
37450;BME280;23309;52.582;13.406;2022-09-09T04:43:37;100578.06;;;23.19;48.11
37450;BME280;23309;52.582;13.406;2022-09-09T04:46:05;100566.13;;;23.13;48.53
37450;BME280;23309;52.582;13.406;2022-09-09T04:48:31;100560.06;;;23.11;48.32
37450;BME280;23309;52.582;13.406;2022-09-09T04:51:00;100582.03;;;23.16;48.26
37450;BME280;23309;52.582;13.406;2022-09-09T04:53:26;100572.03;;;23.10;48.48
37450;BME280;23309;52.582;13.406;2022-09-09T04:56:01;100575.34;;;23.19;48.51
37450;BME280;23309;52.582;13.406;2022-09-09T04:58:28;100588.53;;;23.22;48.40
37450;BME280;23309;52.582;13.406;2022-09-09T05:01:04;100585.53;;;23.30;48.83
37450;BME280;23309;52.582;13.406;2022-09-09T05:03:30;100587.88;;;23.26;48.64
37450;BME280;23309;52.582;13.406;2022-09-09T05:06:04;100578.25;;;23.24;48.47
37450;BME280;23309;52.582;13.406;2022-09-09T05:08:30;100595.19;;;23.32;49.00
37450;BME280;23309;52.582;13.406;2022-09-09T05:10:56;100570.28;;;23.22;48.67
37450;BME280;23309;52.582;13.406;2022-09-09T05:13:23;100580.50;;;23.33;49.26
37450;BME280;23309;52.582;13.406;2022-09-09T05:15:52;100592.69;;;23.55;49.76
37450;BME280;23309;52.582;13.406;2022-09-09T05:18:21;100580.44;;;23.64;50.07
37450;BME280;23309;52.582;13.406;2022-09-09T05:20:47;100594.69;;;23.91;49.71
37450;BME280;23309;52.582;13.406;2022-09-09T05:23:13;100588.13;;;24.16;49.10
37450;BME280;23309;52.582;13.406;2022-09-09T05:25:40;100576.75;;;24.37;48.96
37450;BME280;23309;52.582;13.406;2022-09-09T05:28:06;100594.56;;;24.76;48.40
37450;BME280;23309;52.582;13.406;2022-09-09T05:30:35;100596.03;;;25.08;47.53
37450;BME280;23309;52.582;13.406;2022-09-09T05:33:01;100595.44;;;25.35;47.28
37450;BME280;23309;52.582;13.406;2022-09-09T05:35:30;100584.19;;;25.55;45.93
37450;BME280;23309;52.582;13.406;2022-09-09T05:37:59;100571.22;;;25.73;45.53
37450;BME280;23309;52.582;13.406;2022-09-09T05:40:25;100580.53;;;26.07;44.75
37450;BME280;23309;52.582;13.406;2022-09-09T05:42:52;100588.53;;;26.48;44.66
37450;BME280;23309;52.582;13.406;2022-09-09T05:45:19;100598.66;;;26.71;44.33
37450;BME280;23309;52.582;13.406;2022-09-09T05:47:52;100582.97;;;26.94;43.44
37450;BME280;23309;52.582;13.406;2022-09-09T05:50:18;100580.50;;;27.09;41.97
37450;BME280;23309;52.582;13.406;2022-09-09T05:52:47;100593.34;;;27.37;41.73
37450;BME280;23309;52.582;13.406;2022-09-09T05:55:13;100578.50;;;27.49;41.24
37450;BME280;23309;52.582;13.406;2022-09-09T05:57:42;100590.13;;;27.73;40.23
37450;BME280;23309;52.582;13.406;2022-09-09T06:00:10;100589.91;;;27.91;40.60
37450;BME280;23309;52.582;13.406;2022-09-09T06:02:37;100583.06;;;28.10;40.54
37450;BME280;23309;52.582;13.406;2022-09-09T06:05:05;100605.13;;;28.36;39.30
37450;BME280;23309;52.582;13.406;2022-09-09T06:07:35;100607.34;;;28.56;39.51
37450;BME280;23309;52.582;13.406;2022-09-09T06:10:06;100602.09;;;28.76;39.14
37450;BME280;23309;52.582;13.406;2022-09-09T06:12:34;100613.44;;;29.01;38.06
37450;BME280;23309;52.582;13.406;2022-09-09T06:15:02;100613.66;;;29.21;37.11
37450;BME280;23309;52.582;13.406;2022-09-09T06:17:29;100601.44;;;29.38;36.27
37450;BME280;23309;52.582;13.406;2022-09-09T06:19:59;100611.09;;;29.67;36.17
37450;BME280;23309;52.582;13.406;2022-09-09T06:22:25;100607.16;;;29.58;35.93
37450;BME280;23309;52.582;13.406;2022-09-09T06:24:51;100624.34;;;29.70;36.01
37450;BME280;23309;52.582;13.406;2022-09-09T06:27:19;100623.91;;;29.83;35.99
37450;BME280;23309;52.582;13.406;2022-09-09T06:29:45;100621.00;;;30.00;35.32
37450;BME280;23309;52.582;13.406;2022-09-09T06:32:11;100600.19;;;30.14;34.88
37450;BME280;23309;52.582;13.406;2022-09-09T06:34:40;100617.41;;;30.36;34.54
37450;BME280;23309;52.582;13.406;2022-09-09T06:37:06;100613.94;;;30.60;33.82
37450;BME280;23309;52.582;13.406;2022-09-09T06:39:33;100612.41;;;30.79;33.96
37450;BME280;23309;52.582;13.406;2022-09-09T06:42:00;100622.97;;;31.02;33.45
37450;BME280;23309;52.582;13.406;2022-09-09T06:44:30;100616.91;;;31.10;32.61
37450;BME280;23309;52.582;13.406;2022-09-09T06:46:57;100625.47;;;31.09;32.88
37450;BME280;23309;52.582;13.406;2022-09-09T06:49:23;100627.34;;;30.98;32.93
37450;BME280;23309;52.582;13.406;2022-09-09T06:51:49;100636.16;;;30.85;32.50
37450;BME280;23309;52.582;13.406;2022-09-09T06:54:15;100638.16;;;30.53;33.54
37450;BME280;23309;52.582;13.406;2022-09-09T06:56:44;100641.06;;;30.27;34.09
37450;BME280;23309;52.582;13.406;2022-09-09T06:59:11;100640.28;;;30.00;34.31
37450;BME280;23309;52.582;13.406;2022-09-09T07:01:42;100614.44;;;29.69;34.84
37450;BME280;23309;52.582;13.406;2022-09-09T07:04:09;100611.06;;;29.62;35.01
37450;BME280;23309;52.582;13.406;2022-09-09T07:06:38;100625.78;;;29.78;34.33
37450;BME280;23309;52.582;13.406;2022-09-09T07:09:07;100618.22;;;29.95;34.57
37450;BME280;23309;52.582;13.406;2022-09-09T07:11:39;100611.28;;;30.29;34.32
37450;BME280;23309;52.582;13.406;2022-09-09T07:14:05;100621.19;;;30.71;34.32
37450;BME280;23309;52.582;13.406;2022-09-09T07:16:32;100622.69;;;31.04;32.74
37450;BME280;23309;52.582;13.406;2022-09-09T07:19:04;100630.50;;;31.32;32.81
37450;BME280;23309;52.582;13.406;2022-09-09T07:21:31;100630.28;;;31.58;31.69
37450;BME280;23309;52.582;13.406;2022-09-09T07:23:58;100612.63;;;31.79;31.68
37450;BME280;23309;52.582;13.406;2022-09-09T07:26:27;100616.50;;;31.93;31.52
37450;BME280;23309;52.582;13.406;2022-09-09T07:28:57;100627.00;;;32.12;31.13
37450;BME280;23309;52.582;13.406;2022-09-09T07:31:28;100619.50;;;32.32;31.25
37450;BME280;23309;52.582;13.406;2022-09-09T07:33:54;100632.66;;;32.70;30.66
37450;BME280;23309;52.582;13.406;2022-09-09T07:36:26;100618.44;;;33.02;30.03
37450;BME280;23309;52.582;13.406;2022-09-09T07:38:55;100626.63;;;33.22;29.40
37450;BME280;23309;52.582;13.406;2022-09-09T07:41:24;100631.28;;;33.36;28.90
37450;BME280;23309;52.582;13.406;2022-09-09T07:43:51;100618.47;;;33.45;29.02
37450;BME280;23309;52.582;13.406;2022-09-09T07:46:20;100632.41;;;33.69;28.66
37450;BME280;23309;52.582;13.406;2022-09-09T07:48:48;100622.38;;;33.73;27.80
37450;BME280;23309;52.582;13.406;2022-09-09T07:51:16;100616.00;;;33.77;27.96
37450;BME280;23309;52.582;13.406;2022-09-09T07:53:45;100608.91;;;33.95;27.86
37450;BME280;23309;52.582;13.406;2022-09-09T07:56:17;100629.91;;;34.34;27.47
37450;BME280;23309;52.582;13.406;2022-09-09T07:58:45;100636.78;;;34.42;27.28
37450;BME280;23309;52.582;13.406;2022-09-09T08:01:14;100634.38;;;34.54;27.68
37450;BME280;23309;52.582;13.406;2022-09-09T08:03:42;100643.25;;;34.56;27.01
37450;BME280;23309;52.582;13.406;2022-09-09T08:06:08;100627.72;;;34.31;27.41
37450;BME280;23309;52.582;13.406;2022-09-09T08:08:36;100627.53;;;34.23;27.62
37450;BME280;23309;52.582;13.406;2022-09-09T08:11:12;100633.56;;;34.30;27.58
37450;BME280;23309;52.582;13.406;2022-09-09T08:13:40;100636.47;;;34.15;27.58
37450;BME280;23309;52.582;13.406;2022-09-09T08:16:09;100634.50;;;34.15;26.84
37450;BME280;23309;52.582;13.406;2022-09-09T08:18:36;100629.22;;;34.19;27.38
37450;BME280;23309;52.582;13.406;2022-09-09T08:21:07;100629.22;;;34.19;27.10
37450;BME280;23309;52.582;13.406;2022-09-09T08:23:33;100630.88;;;34.20;27.99
37450;BME280;23309;52.582;13.406;2022-09-09T08:26:07;100636.72;;;34.47;27.49
37450;BME280;23309;52.582;13.406;2022-09-09T08:28:35;100654.06;;;34.57;27.31
37450;BME280;23309;52.582;13.406;2022-09-09T08:31:11;100642.69;;;34.59;27.02
37450;BME280;23309;52.582;13.406;2022-09-09T08:33:38;100652.44;;;34.51;26.67
37450;BME280;23309;52.582;13.406;2022-09-09T08:36:06;100649.78;;;34.41;26.95
37450;BME280;23309;52.582;13.406;2022-09-09T08:38:32;100641.97;;;34.20;27.21
37450;BME280;23309;52.582;13.406;2022-09-09T08:44:05;100657.44;;;33.92;27.31
37450;BME280;23309;52.582;13.406;2022-09-09T08:46:44;100647.44;;;33.96;27.75
37450;BME280;23309;52.582;13.406;2022-09-09T08:49:35;100643.53;;;33.97;27.96
37450;BME280;23309;52.582;13.406;2022-09-09T08:52:08;100651.66;;;33.89;27.98
37450;BME280;23309;52.582;13.406;2022-09-09T08:54:38;100657.31;;;33.74;27.83
37450;BME280;23309;52.582;13.406;2022-09-09T08:57:13;100650.91;;;33.40;28.43
37450;BME280;23309;52.582;13.406;2022-09-09T08:59:40;100653.75;;;33.25;28.51
37450;BME280;23309;52.582;13.406;2022-09-09T09:02:15;100661.03;;;33.11;28.92
37450;BME280;23309;52.582;13.406;2022-09-09T09:05:02;100657.22;;;32.97;29.32
37450;BME280;23309;52.582;13.406;2022-09-09T09:07:53;100658.63;;;32.84;29.32
37450;BME280;23309;52.582;13.406;2022-09-09T09:10:43;100657.59;;;32.60;29.75
37450;BME280;23309;52.582;13.406;2022-09-09T09:13:31;100651.31;;;32.30;30.20
37450;BME280;23309;52.582;13.406;2022-09-09T09:16:09;100658.22;;;32.07;30.71
37450;BME280;23309;52.582;13.406;2022-09-09T09:18:38;100661.00;;;31.92;30.78
37450;BME280;23309;52.582;13.406;2022-09-09T09:21:11;100656.00;;;31.89;30.83
37450;BME280;23309;52.582;13.406;2022-09-09T09:23:48;100651.59;;;31.93;31.29
37450;BME280;23309;52.582;13.406;2022-09-09T09:26:17;100667.59;;;32.11;30.75
37450;BME280;23309;52.582;13.406;2022-09-09T09:28:46;100658.78;;;32.29;30.65
37450;BME280;23309;52.582;13.406;2022-09-09T09:31:15;100642.72;;;32.36;30.40
37450;BME280;23309;52.582;13.406;2022-09-09T09:33:50;100632.13;;;32.58;30.05
37450;BME280;23309;52.582;13.406;2022-09-09T09:36:17;100654.75;;;32.85;30.28
37450;BME280;23309;52.582;13.406;2022-09-09T09:38:54;100668.41;;;33.30;29.20
37450;BME280;23309;52.582;13.406;2022-09-09T09:41:34;100637.59;;;33.42;28.34
37450;BME280;23309;52.582;13.406;2022-09-09T09:44:06;100656.53;;;33.68;28.64
37450;BME280;23309;52.582;13.406;2022-09-09T09:46:46;100653.19;;;33.71;27.99
37450;BME280;23309;52.582;13.406;2022-09-09T09:49:12;100652.03;;;34.11;27.42
37450;BME280;23309;52.582;13.406;2022-09-09T09:51:38;100658.41;;;34.40;27.12
37450;BME280;23309;52.582;13.406;2022-09-09T09:54:14;100659.22;;;34.69;26.83
37450;BME280;23309;52.582;13.406;2022-09-09T09:56:44;100672.69;;;34.80;26.72
37450;BME280;23309;52.582;13.406;2022-09-09T09:59:32;100659.69;;;34.99;26.51
37450;BME280;23309;52.582;13.406;2022-09-09T10:02:17;100666.63;;;35.20;26.48
37450;BME280;23309;52.582;13.406;2022-09-09T10:04:45;100639.72;;;35.16;26.21
37450;BME280;23309;52.582;13.406;2022-09-09T10:07:20;100648.94;;;35.35;25.98
37450;BME280;23309;52.582;13.406;2022-09-09T10:09:55;100664.47;;;35.54;25.53
37450;BME280;23309;52.582;13.406;2022-09-09T10:12:37;100652.16;;;35.60;25.58
37450;BME280;23309;52.582;13.406;2022-09-09T10:15:29;100658.16;;;35.86;25.82
37450;BME280;23309;52.582;13.406;2022-09-09T10:18:08;100622.50;;;35.56;25.20
37450;BME280;23309;52.582;13.406;2022-09-09T10:20:45;100649.16;;;35.75;25.05
37450;BME280;23309;52.582;13.406;2022-09-09T10:23:29;100655.59;;;35.89;25.38
37450;BME280;23309;52.582;13.406;2022-09-09T10:26:19;100658.00;;;35.96;25.47
37450;BME280;23309;52.582;13.406;2022-09-09T10:29:18;100657.28;;;36.36;25.55
37450;BME280;23309;52.582;13.406;2022-09-09T10:32:05;100659.28;;;36.62;24.89
37450;BME280;23309;52.582;13.406;2022-09-09T10:34:56;100661.88;;;36.86;24.42
37450;BME280;23309;52.582;13.406;2022-09-09T10:37:46;100647.88;;;36.77;23.81
37450;BME280;23309;52.582;13.406;2022-09-09T10:40:26;100643.91;;;36.51;24.22
37450;BME280;23309;52.582;13.406;2022-09-09T10:43:07;100668.03;;;36.56;24.08
37450;BME280;23309;52.582;13.406;2022-09-09T10:45:48;100674.00;;;36.17;24.48
37450;BME280;23309;52.582;13.406;2022-09-09T10:48:53;100665.28;;;35.92;25.07
37450;BME280;23309;52.582;13.406;2022-09-09T10:51:28;100655.75;;;35.61;24.97
37450;BME280;23309;52.582;13.406;2022-09-09T10:54:25;100661.31;;;35.98;25.72
37450;BME280;23309;52.582;13.406;2022-09-09T10:57:04;100659.88;;;36.00;24.78
37450;BME280;23309;52.582;13.406;2022-09-09T10:59:36;100670.34;;;35.90;25.08
37450;BME280;23309;52.582;13.406;2022-09-09T11:02:13;100665.25;;;35.78;24.97
37450;BME280;23309;52.582;13.406;2022-09-09T11:04:51;100651.53;;;36.00;24.82
37450;BME280;23309;52.582;13.406;2022-09-09T11:07:33;100657.09;;;36.46;24.55
37450;BME280;23309;52.582;13.406;2022-09-09T11:10:04;100656.69;;;36.52;24.47
37450;BME280;23309;52.582;13.406;2022-09-09T11:12:35;100669.75;;;36.84;23.69
37450;BME280;23309;52.582;13.406;2022-09-09T11:15:12;100654.91;;;36.75;23.53
37450;BME280;23309;52.582;13.406;2022-09-09T11:17:43;100655.31;;;36.68;24.01
37450;BME280;23309;52.582;13.406;2022-09-09T11:20:14;100659.13;;;36.72;23.90
37450;BME280;23309;52.582;13.406;2022-09-09T11:22:48;100669.50;;;36.80;23.67
37450;BME280;23309;52.582;13.406;2022-09-09T11:25:18;100665.72;;;36.90;23.57
37450;BME280;23309;52.582;13.406;2022-09-09T11:28:03;100662.59;;;37.05;23.47
37450;BME280;23309;52.582;13.406;2022-09-09T11:30:43;100665.22;;;37.15;22.73
37450;BME280;23309;52.582;13.406;2022-09-09T11:33:39;100646.81;;;37.14;22.60
37450;BME280;23309;52.582;13.406;2022-09-09T11:36:40;100662.84;;;37.44;22.52
37450;BME280;23309;52.582;13.406;2022-09-09T11:42:29;100659.03;;;37.97;22.44
37450;BME280;23309;52.582;13.406;2022-09-09T11:44:56;100641.38;;;38.24;21.96
37450;BME280;23309;52.582;13.406;2022-09-09T11:47:25;100655.88;;;38.35;22.35
37450;BME280;23309;52.582;13.406;2022-09-09T11:49:53;100652.38;;;38.51;21.13
37450;BME280;23309;52.582;13.406;2022-09-09T11:52:36;100650.13;;;38.62;21.33
37450;BME280;23309;52.582;13.406;2022-09-09T11:55:31;100637.88;;;38.49;21.44
37450;BME280;23309;52.582;13.406;2022-09-09T11:57:58;100644.31;;;38.28;21.87
37450;BME280;23309;52.582;13.406;2022-09-09T12:00:35;100642.78;;;37.69;22.48
37450;BME280;23309;52.582;13.406;2022-09-09T12:03:02;100624.41;;;37.54;22.80
37450;BME280;23309;52.582;13.406;2022-09-09T12:05:37;100629.91;;;37.81;22.88
37450;BME280;23309;52.582;13.406;2022-09-09T12:08:10;100624.00;;;37.83;22.72
37450;BME280;23309;52.582;13.406;2022-09-09T12:10:39;100615.34;;;37.62;22.73
37450;BME280;23309;52.582;13.406;2022-09-09T12:13:18;100629.06;;;37.59;22.65
37450;BME280;23309;52.582;13.406;2022-09-09T12:15:48;100621.03;;;37.08;22.46
37450;BME280;23309;52.582;13.406;2022-09-09T12:18:20;100618.56;;;37.07;22.49
37450;BME280;23309;52.582;13.406;2022-09-09T12:20:57;100600.63;;;36.99;23.07
37450;BME280;23309;52.582;13.406;2022-09-09T12:23:51;100620.28;;;37.30;22.58
37450;BME280;23309;52.582;13.406;2022-09-09T12:26:30;100613.78;;;37.07;22.47
37450;BME280;23309;52.582;13.406;2022-09-09T12:29:08;100619.69;;;37.06;22.78
37450;BME280;23309;52.582;13.406;2022-09-09T12:31:42;100607.91;;;37.09;22.33
37450;BME280;23309;52.582;13.406;2022-09-09T12:34:13;100613.72;;;37.12;22.54
37450;BME280;23309;52.582;13.406;2022-09-09T12:36:41;100597.81;;;37.13;21.85
37450;BME280;23309;52.582;13.406;2022-09-09T12:39:19;100598.03;;;37.03;22.08
37450;BME280;23309;52.582;13.406;2022-09-09T12:41:52;100596.31;;;36.53;22.02
37450;BME280;23309;52.582;13.406;2022-09-09T12:44:19;100600.13;;;36.30;22.83
37450;BME280;23309;52.582;13.406;2022-09-09T12:46:48;100602.84;;;36.16;23.09
37450;BME280;23309;52.582;13.406;2022-09-09T12:49:29;100585.59;;;35.87;23.90
37450;BME280;23309;52.582;13.406;2022-09-09T12:51:56;100607.19;;;35.77;23.27
37450;BME280;23309;52.582;13.406;2022-09-09T12:54:25;100600.13;;;35.47;23.88
37450;BME280;23309;52.582;13.406;2022-09-09T12:56:51;100599.47;;;35.37;23.89
37450;BME280;23309;52.582;13.406;2022-09-09T12:59:27;100590.22;;;35.23;23.83
37450;BME280;23309;52.582;13.406;2022-09-09T13:02:01;100598.38;;;35.14;24.24
37450;BME280;23309;52.582;13.406;2022-09-09T13:04:28;100606.28;;;35.07;24.29
37450;BME280;23309;52.582;13.406;2022-09-09T13:06:54;100605.13;;;34.90;24.34
37450;BME280;23309;52.582;13.406;2022-09-09T13:09:33;100610.06;;;34.69;24.58
37450;BME280;23309;52.582;13.406;2022-09-09T13:12:00;100608.84;;;34.57;24.99
37450;BME280;23309;52.582;13.406;2022-09-09T13:14:31;100608.19;;;34.41;24.98